Time;durP1;ratioP1;P1;durP2;ratioP2;P2;SDS_P1;SDS_P2;PMS_P1;PMS_P2;Temp;Humidity;BMP_temperature;BMP_pressure;BME280_temperature;BME280_humidity;BME280_pressure;Samples;Min_cycle;Max_cycle;Signal;HPM_P1;HPM_P2
2021/01/11 00:02:03;;;;;;;60.63;39.37;;;2.70;88.10;;;;;;5090499;28;20506;-77
2021/01/11 00:04:29;;;;;;;58.27;38.80;;;2.70;88.40;;;;;;5090882;28;20035;-78
2021/01/11 00:06:54;;;;;;;66.73;40.73;;;2.70;88.50;;;;;;5092528;28;20028;-74
2021/01/11 00:09:21;;;;;;;66.93;42.27;;;2.80;88.50;;;;;;5090515;28;20024;-76
2021/01/11 00:11:47;;;;;;;59.67;40.00;;;2.90;88.80;;;;;;5091224;28;20429;-76
2021/01/11 00:14:13;;;;;;;61.83;39.33;;;3.00;88.80;;;;;;5089335;28;20040;-76
2021/01/11 00:16:38;;;;;;;61.20;37.87;;;3.10;88.70;;;;;;5090934;28;20058;-78
2021/01/11 00:19:04;;;;;;;60.27;40.57;;;3.10;88.80;;;;;;5082254;28;20066;-76
2021/01/11 00:21:30;;;;;;;62.20;39.90;;;3.20;88.50;;;;;;5090589;28;20361;-76
2021/01/11 00:23:56;;;;;;;58.40;38.60;;;3.20;88.50;;;;;;5092748;28;20024;-78
2021/01/11 00:26:22;;;;;;;56.20;37.33;;;3.20;88.40;;;;;;5090374;28;20055;-77
2021/01/11 00:28:47;;;;;;;60.60;37.13;;;3.20;88.20;;;;;;5082136;28;20032;-76
2021/01/11 00:31:24;;;;;;;55.17;38.20;;;3.20;88.20;;;;;;5089360;28;20487;-76
2021/01/11 00:33:51;;;;;;;61.83;38.47;;;3.10;88.00;;;;;;5090723;28;20525;-76
2021/01/11 00:36:17;;;;;;;57.20;37.00;;;3.10;88.10;;;;;;5089064;28;20161;-78
2021/01/11 00:38:43;;;;;;;58.93;37.47;;;3.00;87.70;;;;;;5090738;28;20031;-77
2021/01/11 00:41:15;;;;;;;59.63;37.67;;;3.00;87.60;;;;;;5073082;28;20028;-77
2021/01/11 00:43:41;;;;;;;55.88;37.30;;;3.00;87.70;;;;;;5091831;28;20101;-77
2021/01/11 00:46:06;;;;;;;59.23;38.20;;;3.00;87.60;;;;;;5069433;28;20475;-77
2021/01/11 00:48:32;;;;;;;59.50;36.70;;;3.10;87.70;;;;;;5088665;28;20127;-76
2021/01/11 00:50:57;;;;;;;53.80;35.33;;;3.10;87.80;;;;;;5089801;28;20067;-76
2021/01/11 00:53:23;;;;;;;55.40;35.57;;;3.10;87.60;;;;;;5073261;28;20020;-77
2021/01/11 00:55:49;;;;;;;53.90;35.57;;;3.10;87.60;;;;;;5088797;28;20066;-77
2021/01/11 00:58:14;;;;;;;57.83;34.97;;;3.10;87.70;;;;;;5073230;28;20032;-77
2021/01/11 01:00:40;;;;;;;50.97;32.67;;;3.20;87.60;;;;;;5072375;28;20100;-77
2021/01/11 01:03:05;;;;;;;49.90;32.40;;;3.10;87.20;;;;;;5086478;28;20460;-76
2021/01/11 01:05:31;;;;;;;52.30;34.23;;;3.00;87.20;;;;;;5070546;28;20532;-77
2021/01/11 01:07:57;;;;;;;51.77;32.93;;;3.10;87.50;;;;;;5087840;28;20036;-77
2021/01/11 01:10:22;;;;;;;51.10;32.57;;;3.10;87.40;;;;;;5088357;28;20044;-77
2021/01/11 01:12:48;;;;;;;49.23;31.50;;;3.00;87.20;;;;;;5091971;28;20030;-76
2021/01/11 01:15:14;;;;;;;51.07;32.63;;;3.00;86.80;;;;;;5090808;28;20035;-77
2021/01/11 01:17:39;;;;;;;54.93;34.40;;;3.00;87.30;;;;;;5092277;28;20028;-77
2021/01/11 01:20:17;;;;;;;51.03;32.87;;;3.00;87.00;;;;;;5089209;28;20047;-76
2021/01/11 01:22:46;;;;;;;54.47;33.17;;;3.00;86.70;;;;;;5075139;28;20120;-77
2021/01/11 01:25:13;;;;;;;51.13;33.03;;;2.90;87.00;;;;;;5072462;28;20040;-77
2021/01/11 01:27:39;;;;;;;51.63;33.37;;;3.10;87.10;;;;;;5090661;28;20036;-77
2021/01/11 01:30:08;;;;;;;56.50;34.93;;;3.00;86.70;;;;;;5068379;28;20056;-77
2021/01/11 01:32:33;;;;;;;55.63;35.17;;;3.00;86.70;;;;;;5086482;28;20476;-77
2021/01/11 01:34:59;;;;;;;55.57;35.70;;;3.00;86.70;;;;;;5056495;28;20035;-77
2021/01/11 01:37:24;;;;;;;59.57;36.67;;;3.00;86.80;;;;;;5089610;28;20044;-77
2021/01/11 01:39:50;;;;;;;61.07;36.27;;;3.10;86.70;;;;;;5090513;28;20032;-76
2021/01/11 01:42:15;;;;;;;58.67;34.87;;;3.00;86.70;;;;;;5072728;28;20024;-76
2021/01/11 01:44:41;;;;;;;52.07;33.60;;;3.00;86.80;;;;;;5089161;28;20048;-76
2021/01/11 01:47:07;;;;;;;54.67;35.43;;;3.00;86.50;;;;;;5072839;28;20032;-76
2021/01/11 01:49:32;;;;;;;55.17;34.90;;;3.00;86.50;;;;;;5087039;28;20123;-77
2021/01/11 01:51:59;;;;;;;53.37;35.17;;;2.90;86.50;;;;;;5073504;28;20020;-78
2021/01/11 01:54:25;;;;;;;55.07;35.47;;;3.00;86.40;;;;;;5088310;28;20048;-75
2021/01/11 01:56:50;;;;;;;60.33;37.30;;;2.90;86.30;;;;;;5088832;28;20060;-77
2021/01/11 01:59:18;;;;;;;58.17;36.33;;;3.00;86.30;;;;;;5072215;28;20464;-77
2021/01/11 02:01:44;;;;;;;55.40;35.23;;;3.00;86.20;;;;;;5092681;28;20038;-77
2021/01/11 02:04:09;;;;;;;54.77;32.97;;;3.00;86.60;;;;;;5089675;28;20123;-76
2021/01/11 02:06:40;;;;;;;52.60;33.50;;;3.00;86.30;;;;;;5071510;28;20411;-77
2021/01/11 02:09:15;;;;;;;54.00;33.57;;;2.90;86.40;;;;;;5090606;28;20051;-75
2021/01/11 02:11:49;;;;;;;51.60;33.47;;;3.00;86.50;;;;;;5089038;28;20103;-76
2021/01/11 02:14:40;;;;;;;50.33;32.53;;;3.00;87.00;;;;;;5089094;28;20492;-76
2021/01/11 02:17:21;;;;;;;50.77;32.57;;;3.00;86.50;;;;;;5086464;28;20471;-75
2021/01/11 02:20:10;;;;;;;52.70;32.10;;;3.00;86.60;;;;;;5076815;28;20351;-76
2021/01/11 02:22:55;;;;;;;57.20;31.47;;;3.00;86.60;;;;;;5086534;28;20028;-76
2021/01/11 02:25:26;;;;;;;52.60;30.27;;;2.90;86.60;;;;;;5089041;28;20548;-76
2021/01/11 02:27:58;;;;;;;56.10;31.40;;;2.80;86.50;;;;;;5089448;28;20071;-76
2021/01/11 02:30:34;;;;;;;53.33;30.80;;;2.70;86.80;;;;;;5088361;28;20115;-76
2021/01/11 02:33:08;;;;;;;50.73;29.77;;;2.80;87.20;;;;;;5072228;28;20035;-76
2021/01/11 02:36:02;;;;;;;46.83;28.33;;;2.80;87.40;;;;;;5088921;28;20417;-76
2021/01/11 02:38:29;;;;;;;48.97;28.97;;;2.90;87.60;;;;;;5086404;28;20568;-76
2021/01/11 02:40:55;;;;;;;47.87;26.23;;;2.80;87.20;;;;;;5088359;28;20080;-76
2021/01/11 02:43:21;;;;;;;51.67;27.67;;;2.80;87.50;;;;;;5088676;28;20024;-76
2021/01/11 02:45:47;;;;;;;52.13;26.57;;;2.90;87.50;;;;;;5094897;28;20040;-76
2021/01/11 02:48:28;;;;;;;48.13;26.77;;;2.90;87.50;;;;;;5094121;28;20548;-76
2021/01/11 02:51:19;;;;;;;48.30;26.13;;;2.80;87.60;;;;;;5091332;28;20031;-76
2021/01/11 02:54:05;;;;;;;47.10;25.60;;;2.90;87.80;;;;;;5094675;28;20436;-76
2021/01/11 02:56:43;;;;;;;49.43;25.03;;;2.90;87.80;;;;;;5094510;28;20035;-76
2021/01/11 02:59:15;;;;;;;46.47;23.77;;;2.80;87.70;;;;;;5093433;28;20032;-75
2021/01/11 03:01:49;;;;;;;53.25;25.20;;;2.80;88.10;;;;;;5092633;28;20030;-76
2021/01/11 03:04:20;;;;;;;56.97;28.17;;;2.80;88.10;;;;;;5091166;28;20024;-76
2021/01/11 03:06:53;;;;;;;57.17;28.47;;;2.80;87.90;;;;;;5092270;28;20044;-75
2021/01/11 03:09:19;;;;;;;53.80;27.13;;;2.80;87.80;;;;;;5092298;28;20028;-76
2021/01/11 03:11:44;;;;;;;57.13;27.17;;;2.70;87.90;;;;;;5075725;28;20043;-76
2021/01/11 03:14:10;;;;;;;61.67;28.57;;;2.80;88.30;;;;;;5091574;28;20028;-75
2021/01/11 03:16:36;;;;;;;62.27;28.77;;;2.90;88.20;;;;;;5074781;28;20040;-77
2021/01/11 03:19:02;;;;;;;58.97;28.17;;;3.00;88.10;;;;;;5092579;28;20433;-76
2021/01/11 03:21:27;;;;;;;62.03;28.77;;;2.90;88.00;;;;;;5090690;28;20024;-76
2021/01/11 03:23:53;;;;;;;61.30;28.90;;;2.90;88.30;;;;;;5057214;28;20038;-76
2021/01/11 03:26:23;;;;;;;64.53;31.03;;;3.00;88.40;;;;;;5091363;28;20040;-76
2021/01/11 03:28:49;;;;;;;67.73;30.83;;;3.00;88.30;;;;;;5094426;28;20051;-77
2021/01/11 03:31:15;;;;;;;69.13;33.60;;;3.00;88.40;;;;;;5090276;28;20426;-81
2021/01/11 03:33:41;;;;;;;67.60;33.70;;;3.00;88.30;;;;;;5094197;28;20020;-77
2021/01/11 03:36:07;;;;;;;72.63;36.40;;;3.00;88.40;;;;;;5092291;28;20056;-76
2021/01/11 03:38:32;;;;;;;69.43;34.37;;;3.10;88.30;;;;;;5096526;28;20066;-76
2021/01/11 03:41:03;;;;;;;67.00;33.47;;;3.10;88.20;;;;;;5074168;28;20039;-76
2021/01/11 03:43:29;;;;;;;66.80;33.50;;;3.20;88.20;;;;;;5091826;28;20022;-76
2021/01/11 03:45:55;;;;;;;66.00;33.47;;;3.20;88.20;;;;;;5091790;28;20101;-77
2021/01/11 03:48:21;;;;;;;71.83;36.87;;;3.30;88.20;;;;;;5073536;28;20122;-76
2021/01/11 03:50:48;;;;;;;65.20;35.07;;;3.20;87.90;;;;;;5093215;28;20379;-77
2021/01/11 03:53:14;;;;;;;61.07;34.13;;;3.20;88.10;;;;;;5091283;28;20099;-76
2021/01/11 03:55:40;;;;;;;64.07;34.63;;;3.20;88.20;;;;;;5090148;28;20118;-77
2021/01/11 03:58:07;;;;;;;68.63;37.57;;;3.30;88.30;;;;;;5092872;28;20036;-77
2021/01/11 04:00:32;;;;;;;65.30;36.47;;;3.30;87.80;;;;;;5089876;28;20024;-77
2021/01/11 04:02:58;;;;;;;59.40;34.23;;;3.20;87.70;;;;;;5091630;28;20034;-77
2021/01/11 04:05:26;;;;;;;58.40;34.40;;;3.20;87.60;;;;;;5074253;28;20094;-76
2021/01/11 04:07:52;;;;;;;73.37;34.90;;;3.20;87.90;;;;;;5092626;28;20055;-77
2021/01/11 04:10:17;;;;;;;57.50;33.47;;;3.20;87.90;;;;;;5073020;28;20056;-76
2021/01/11 04:12:43;;;;;;;58.10;32.37;;;3.20;87.90;;;;;;5058530;28;20028;-77
2021/01/11 04:15:09;;;;;;;57.80;34.03;;;3.30;87.90;;;;;;5091076;28;20503;-77
2021/01/11 04:17:35;;;;;;;53.47;32.67;;;3.20;87.50;;;;;;5091969;28;20110;-77
2021/01/11 04:20:01;;;;;;;50.27;30.30;;;3.20;87.60;;;;;;5074333;28;20123;-77
2021/01/11 04:22:27;;;;;;;48.50;29.97;;;3.20;87.80;;;;;;5090169;28;20035;-76
2021/01/11 04:24:52;;;;;;;48.30;30.30;;;3.40;87.90;;;;;;5092129;28;20058;-76
2021/01/11 04:27:22;;;;;;;54.73;32.57;;;3.40;87.70;;;;;;5056765;28;20051;-77
2021/01/11 04:29:47;;;;;;;49.43;31.00;;;3.30;87.70;;;;;;5091675;28;20135;-76
2021/01/11 04:32:13;;;;;;;46.83;30.13;;;3.40;87.80;;;;;;5090374;28;20114;-75
2021/01/11 04:34:38;;;;;;;48.17;30.80;;;3.40;87.60;;;;;;5090718;28;20032;-77
2021/01/11 04:37:07;;;;;;;49.43;30.67;;;3.30;87.20;;;;;;5074649;28;20029;-77
2021/01/11 04:39:34;;;;;;;45.63;29.57;;;3.30;87.10;;;;;;5073000;28;20068;-77
2021/01/11 04:42:08;;;;;;;49.17;30.97;;;3.20;87.10;;;;;;5090906;28;20450;-76
2021/01/11 04:44:36;;;;;;;45.47;30.33;;;3.10;87.30;;;;;;5090376;28;20020;-76
2021/01/11 04:47:01;;;;;;;42.97;28.77;;;3.10;87.20;;;;;;5091624;28;20020;-77
2021/01/11 04:49:28;;;;;;;43.50;29.20;;;3.20;87.40;;;;;;5072752;28;20058;-77
2021/01/11 04:51:55;;;;;;;46.03;30.03;;;3.20;87.40;;;;;;5073990;28;20028;-76
2021/01/11 04:54:21;;;;;;;46.70;30.80;;;3.20;87.20;;;;;;5071995;28;20039;-76
2021/01/11 04:56:49;;;;;;;45.17;30.60;;;3.10;86.80;;;;;;5091842;28;20028;-76
2021/01/11 04:59:19;;;;;;;48.17;29.83;;;3.00;86.80;;;;;;5086884;28;20024;-75
2021/01/11 05:01:51;;;;;;;48.60;32.50;;;3.00;87.20;;;;;;5089120;28;20032;-76
2021/01/11 05:04:17;;;;;;;47.27;31.53;;;3.10;87.40;;;;;;5071871;28;20085;-75
2021/01/11 05:06:47;;;;;;;50.83;33.60;;;3.10;87.20;;;;;;5090009;28;20430;-75
2021/01/11 05:09:16;;;;;;;50.47;31.73;;;3.10;87.10;;;;;;5090226;28;20043;-74
2021/01/11 05:11:41;;;;;;;53.77;33.23;;;3.00;87.00;;;;;;5089520;28;20051;-76
2021/01/11 05:14:08;;;;;;;52.90;33.60;;;3.10;87.10;;;;;;5074247;28;20463;-76
2021/01/11 05:16:36;;;;;;;53.03;31.23;;;3.10;87.10;;;;;;5090667;28;20263;-76
2021/01/11 05:19:22;;;;;;;50.23;32.00;;;3.10;87.30;;;;;;5089848;28;20035;-76
2021/01/11 05:21:48;;;;;;;52.53;32.30;;;3.20;87.30;;;;;;5072388;28;20090;-76
2021/01/11 05:24:34;;;;;;;51.13;32.27;;;3.20;87.00;;;;;;5070491;28;20107;-74
2021/01/11 05:27:10;;;;;;;54.87;33.63;;;3.10;86.80;;;;;;5075046;28;20032;-76
2021/01/11 05:29:38;;;;;;;54.03;33.10;;;3.10;86.60;;;;;;5089203;28;20710;-76
2021/01/11 05:32:08;;;;;;;50.20;30.90;;;3.00;86.40;;;;;;5074026;28;20032;-77
2021/01/11 05:34:47;;;;;;;55.13;34.10;;;2.90;86.60;;;;;;5072156;28;20920;-76
2021/01/11 05:37:38;;;;;;;55.13;32.97;;;2.90;86.60;;;;;;5071714;28;20035;-77
2021/01/11 05:40:05;;;;;;;53.43;32.80;;;2.90;86.90;;;;;;5086581;28;20028;-77
2021/01/11 05:42:31;;;;;;;57.53;34.80;;;3.00;87.10;;;;;;5088001;28;20024;-76
2021/01/11 05:45:35;;;;;;;59.43;34.47;;;2.90;86.70;;;;;;5089905;28;20394;-76
2021/01/11 05:48:01;;;;;;;57.37;32.30;;;2.90;86.60;;;;;;5087563;28;20509;-76
2021/01/11 05:50:32;;;;;;;56.37;33.20;;;2.90;86.60;;;;;;5096462;28;20108;-76
2021/01/11 05:52:57;;;;;;;54.80;32.77;;;2.90;86.40;;;;;;5105762;28;20048;-76
2021/01/11 05:55:28;;;;;;;51.23;32.60;;;2.90;86.50;;;;;;5104244;28;20035;-76
2021/01/11 05:57:57;;;;;;;51.73;31.30;;;3.10;86.80;;;;;;5088629;28;20082;-76
2021/01/11 06:00:25;;;;;;;50.40;32.40;;;3.10;86.80;;;;;;5093436;28;20024;-75
2021/01/11 06:02:52;;;;;;;52.63;32.77;;;3.20;86.80;;;;;;5070200;28;20107;-76
2021/01/11 06:05:18;;;;;;;51.10;31.97;;;3.20;86.50;;;;;;5079633;28;20040;-78
2021/01/11 06:07:47;;;;;;;53.17;31.20;;;3.20;86.50;;;;;;5090049;28;20028;-77
2021/01/11 06:10:14;;;;;;;54.40;32.17;;;3.20;87.00;;;;;;5070958;28;20105;-79
2021/01/11 06:12:41;;;;;;;47.47;30.60;;;3.20;86.60;;;;;;5071743;28;20656;-77
2021/01/11 06:15:15;;;;;;;47.87;31.17;;;3.30;86.80;;;;;;5086800;28;20036;-78
2021/01/11 06:17:42;;;;;;;52.37;31.67;;;3.30;86.50;;;;;;5088849;28;20875;-78
2021/01/11 06:20:12;;;;;;;51.10;31.53;;;3.30;86.50;;;;;;5072265;28;20485;-78
2021/01/11 06:22:59;;;;;;;50.17;32.33;;;3.40;86.60;;;;;;5089798;28;20020;-78
2021/01/11 06:25:24;;;;;;;48.73;30.70;;;3.30;86.30;;;;;;5088220;28;20043;-78
2021/01/11 06:28:02;;;;;;;49.90;30.97;;;3.30;86.00;;;;;;5073558;28;20108;-75
2021/01/11 06:30:34;;;;;;;46.67;30.37;;;3.30;85.80;;;;;;5086316;28;20040;-78
2021/01/11 06:33:10;;;;;;;49.47;31.10;;;3.30;86.30;;;;;;5087691;28;20024;-78
2021/01/11 06:35:49;;;;;;;45.70;30.00;;;3.40;86.60;;;;;;5088481;28;20037;-77
2021/01/11 06:38:25;;;;;;;48.47;32.27;;;3.40;86.40;;;;;;5069761;28;20090;-77
2021/01/11 06:41:04;;;;;;;51.07;32.53;;;3.50;86.30;;;;;;5083844;28;20119;-77
2021/01/11 06:43:40;;;;;;;47.00;31.13;;;3.40;85.90;;;;;;5091317;28;20027;-77
2021/01/11 06:46:06;;;;;;;50.33;32.10;;;3.40;86.10;;;;;;5094714;28;20036;-77
2021/01/11 06:48:33;;;;;;;46.93;32.07;;;3.40;86.20;;;;;;5088845;28;20126;-76
2021/01/11 06:51:10;;;;;;;46.10;31.47;;;3.40;86.30;;;;;;5089206;28;20028;-76
2021/01/11 06:53:36;;;;;;;45.67;31.13;;;3.50;86.50;;;;;;5070342;28;20036;-76
2021/01/11 06:56:10;;;;;;;48.97;32.20;;;3.60;86.20;;;;;;5089961;28;20063;-76
2021/01/11 06:58:40;;;;;;;47.97;32.57;;;3.60;86.00;;;;;;5075646;28;20024;-78
2021/01/11 07:01:09;;;;;;;52.00;32.67;;;3.50;86.00;;;;;;5086852;28;20117;-76
2021/01/11 07:03:49;;;;;;;49.73;32.77;;;3.50;86.00;;;;;;5085751;28;20036;-76
2021/01/11 07:06:58;;;;;;;51.63;32.77;;;3.60;86.20;;;;;;5088583;28;20121;-76
2021/01/11 07:09:24;;;;;;;48.20;31.83;;;3.50;85.60;;;;;;5069321;28;20032;-76
2021/01/11 07:11:51;;;;;;;52.10;33.30;;;3.50;85.80;;;;;;5082793;28;20441;-77
2021/01/11 07:14:21;;;;;;;49.83;33.60;;;3.40;85.90;;;;;;5082130;28;20422;-78
2021/01/11 07:16:49;;;;;;;52.90;32.73;;;3.40;86.00;;;;;;5088149;28;20034;-77
2021/01/11 07:19:20;;;;;;;52.13;33.87;;;3.40;86.10;;;;;;5086623;28;20054;-77
2021/01/11 07:21:50;;;;;;;56.73;35.63;;;3.40;86.40;;;;;;5088600;28;20038;-77
2021/01/11 07:24:16;;;;;;;52.93;33.77;;;3.50;86.70;;;;;;5071519;28;20080;-76
2021/01/11 07:26:43;;;;;;;53.23;34.80;;;3.60;86.80;;;;;;5087657;28;20051;-77
2021/01/11 07:29:17;;;;;;;50.50;33.97;;;3.60;86.60;;;;;;5071554;28;20030;-77
2021/01/11 07:31:47;;;;;;;54.27;34.07;;;3.60;86.40;;;;;;5073921;28;20483;-77
2021/01/11 07:34:18;;;;;;;51.43;33.23;;;3.60;86.40;;;;;;5087977;28;20457;-77
2021/01/11 07:36:46;;;;;;;58.13;37.07;;;3.60;85.90;;;;;;5092688;28;20062;-77
2021/01/11 07:39:14;;;;;;;51.83;33.20;;;3.70;86.40;;;;;;5092310;28;20016;-76
2021/01/11 07:41:43;;;;;;;54.03;35.37;;;3.70;86.30;;;;;;5087487;28;20490;-77
2021/01/11 07:44:16;;;;;;;54.60;33.57;;;3.60;86.00;;;;;;5090601;28;20065;-78
2021/01/11 07:46:42;;;;;;;56.33;35.23;;;3.60;85.80;;;;;;5102064;28;20851;-77
2021/01/11 07:49:16;;;;;;;53.87;32.97;;;3.60;86.20;;;;;;5090901;28;20512;-77
2021/01/11 07:51:44;;;;;;;57.10;35.50;;;3.60;86.30;;;;;;5090545;28;20097;-77
2021/01/11 07:54:13;;;;;;;55.57;34.00;;;3.50;86.20;;;;;;5092508;28;20054;-77
2021/01/11 07:56:39;;;;;;;61.80;39.40;;;3.50;86.10;;;;;;5071383;28;20126;-76
2021/01/11 07:59:06;;;;;;;56.73;35.60;;;3.50;86.50;;;;;;5086545;28;20511;-77
2021/01/11 08:01:34;;;;;;;57.33;36.57;;;3.60;86.30;;;;;;5062150;28;20028;-78
2021/01/11 08:04:00;;;;;;;63.93;40.50;;;3.50;86.10;;;;;;5082298;28;20109;-78
2021/01/11 08:06:25;;;;;;;59.13;37.83;;;3.50;86.20;;;;;;5080993;28;20044;-78
2021/01/11 08:08:54;;;;;;;54.00;34.77;;;3.50;86.20;;;;;;5065314;28;20119;-78
2021/01/11 08:11:21;;;;;;;58.53;37.83;;;3.50;85.80;;;;;;5084970;28;20033;-78
2021/01/11 08:13:46;;;;;;;58.27;37.37;;;3.40;86.10;;;;;;5082540;28;20193;-78
2021/01/11 08:16:14;;;;;;;54.67;34.87;;;3.40;86.40;;;;;;5082315;28;20681;-77
2021/01/11 08:18:40;;;;;;;60.47;37.97;;;3.40;86.10;;;;;;5079876;28;20114;-78
2021/01/11 08:21:11;;;;;;;55.57;35.33;;;3.40;86.30;;;;;;5066553;28;20036;-78
2021/01/11 08:23:37;;;;;;;59.67;35.53;;;3.40;86.30;;;;;;5078539;28;20486;-77
2021/01/11 08:26:08;;;;;;;57.57;35.87;;;3.40;86.30;;;;;;5064969;28;20040;-77
2021/01/11 08:28:35;;;;;;;57.27;35.63;;;3.40;86.10;;;;;;5079799;28;20043;-77
2021/01/11 08:31:01;;;;;;;69.30;41.03;;;3.40;86.10;;;;;;5077916;28;20028;-77
2021/01/11 08:33:30;;;;;;;58.23;36.27;;;3.40;86.30;;;;;;5080341;28;20025;-77
2021/01/11 08:36:20;;;;;;;60.37;38.27;;;3.40;86.00;;;;;;5083360;28;20105;-78
2021/01/11 08:39:15;;;;;;;63.97;38.37;;;3.40;86.50;;;;;;5063409;28;20040;-77
2021/01/11 08:41:48;;;;;;;59.70;37.37;;;3.40;86.60;;;;;;5079753;28;20383;-77
2021/01/11 08:44:46;;;;;;;65.32;37.50;;;3.40;86.70;;;;;;5079821;28;20150;-77
2021/01/11 08:47:12;;;;;;;58.40;36.23;;;3.40;86.60;;;;;;5079948;27;20066;-77
2021/01/11 08:50:04;;;;;;;57.97;35.07;;;3.40;86.70;;;;;;5064162;28;20029;-77
2021/01/11 08:52:34;;;;;;;61.23;37.37;;;3.40;86.30;;;;;;5087483;28;20024;-77
2021/01/11 08:55:14;;;;;;;59.93;38.33;;;3.30;86.30;;;;;;5090503;28;20028;-77
2021/01/11 08:57:40;;;;;;;66.97;42.40;;;3.20;86.50;;;;;;5089627;28;20524;-77
2021/01/11 09:00:12;;;;;;;71.47;41.80;;;3.30;87.00;;;;;;5090375;28;20099;-77
2021/01/11 09:02:46;;;;;;;69.80;39.53;;;3.40;87.20;;;;;;5084556;28;20031;-77
2021/01/11 09:05:16;;;;;;;62.10;36.67;;;3.50;86.90;;;;;;5082812;28;20052;-76
2021/01/11 09:07:42;;;;;;;65.53;40.20;;;3.50;86.50;;;;;;5077675;28;20450;-76
2021/01/11 09:10:25;;;;;;;66.43;38.73;;;3.40;86.50;;;;;;5079567;28;20035;-77
2021/01/11 09:12:51;;;;;;;64.53;39.22;;;3.40;86.70;;;;;;5085689;28;20021;-76
2021/01/11 09:15:27;;;;;;;60.63;37.00;;;3.40;86.40;;;;;;5087806;28;20039;-76
2021/01/11 09:18:04;;;;;;;66.40;39.20;;;3.40;86.70;;;;;;5088520;28;20024;-75
2021/01/11 09:20:34;;;;;;;61.87;38.57;;;3.50;86.80;;;;;;5088822;28;20070;-76
2021/01/11 09:22:59;;;;;;;68.70;40.40;;;3.50;86.60;;;;;;5089911;28;20042;-76
2021/01/11 09:25:27;;;;;;;72.00;42.20;;;3.40;86.60;;;;;;5089598;28;20044;-76
2021/01/11 09:27:52;;;;;;;62.97;37.37;;;3.50;86.70;;;;;;5069899;28;20020;-76
2021/01/11 09:30:18;;;;;;;73.13;43.30;;;3.50;86.60;;;;;;5055164;28;20024;-76
2021/01/11 09:32:45;;;;;;;61.33;36.47;;;3.50;86.60;;;;;;5088375;28;20039;-76
2021/01/11 09:35:12;;;;;;;59.67;36.50;;;3.50;86.70;;;;;;5070008;28;20125;-76
2021/01/11 09:37:38;;;;;;;64.17;38.80;;;3.50;86.60;;;;;;5088713;28;20376;-76
2021/01/11 09:40:05;;;;;;;61.97;37.13;;;3.50;86.60;;;;;;5087690;28;20016;-76
2021/01/11 09:42:30;;;;;;;63.40;37.30;;;3.50;86.40;;;;;;5091081;28;20028;-76
2021/01/11 09:44:56;;;;;;;55.13;34.10;;;3.50;86.30;;;;;;5072273;28;20364;-78
2021/01/11 09:47:22;;;;;;;64.10;36.23;;;3.50;86.50;;;;;;5089256;28;20028;-77
2021/01/11 09:49:48;;;;;;;64.83;37.27;;;3.50;86.40;;;;;;5089492;28;20063;-76
2021/01/11 09:52:14;;;;;;;63.17;38.07;;;3.60;86.60;;;;;;5089626;28;20476;-77
2021/01/11 09:54:40;;;;;;;61.67;36.97;;;3.60;86.70;;;;;;5088846;28;20024;-76
2021/01/11 09:57:09;;;;;;;55.23;33.93;;;3.80;87.10;;;;;;5090559;28;20142;-76
2021/01/11 09:59:35;;;;;;;56.93;34.83;;;3.70;86.40;;;;;;5087709;28;20127;-76
2021/01/11 10:02:01;;;;;;;63.77;38.50;;;3.70;86.40;;;;;;5087996;28;20111;-76
2021/01/11 10:04:27;;;;;;;57.67;35.47;;;3.70;86.40;;;;;;5072736;28;20027;-76
2021/01/11 10:06:56;;;;;;;60.83;36.00;;;3.90;86.90;;;;;;5088604;28;20066;-77
2021/01/11 10:09:27;;;;;;;59.87;35.83;;;3.90;86.30;;;;;;5072013;28;20023;-76
2021/01/11 10:11:55;;;;;;;56.53;35.13;;;3.90;86.40;;;;;;5090118;28;20085;-76
2021/01/11 10:14:22;;;;;;;55.63;34.67;;;4.00;86.40;;;;;;5087471;28;20855;-78
2021/01/11 10:16:49;;;;;;;47.10;30.43;;;4.00;86.20;;;;;;5071137;28;20387;-78
2021/01/11 10:19:17;;;;;;;51.03;30.67;;;4.20;86.20;;;;;;5089413;28;20089;-77
2021/01/11 10:21:43;;;;;;;46.20;30.00;;;4.10;85.10;;;;;;5089282;28;20028;-77
2021/01/11 10:24:11;;;;;;;47.73;29.53;;;4.00;85.00;;;;;;5090507;28;20022;-77
2021/01/11 10:26:36;;;;;;;47.00;28.97;;;4.10;85.60;;;;;;5087366;28;20036;-78
2021/01/11 10:29:03;;;;;;;44.53;26.90;;;4.10;85.50;;;;;;5087309;28;20039;-77
2021/01/11 10:31:29;;;;;;;46.20;28.17;;;4.10;85.10;;;;;;5072712;28;20031;-78
2021/01/11 10:33:54;;;;;;;43.20;27.13;;;4.10;85.10;;;;;;5062681;28;20700;-77
2021/01/11 10:36:20;;;;;;;46.30;27.93;;;4.10;84.70;;;;;;5066284;28;20356;-78
2021/01/11 10:38:46;;;;;;;43.30;26.97;;;4.10;85.00;;;;;;5068735;28;20028;-77
2021/01/11 10:41:19;;;;;;;42.80;25.73;;;4.00;84.90;;;;;;5069350;28;20032;-77
2021/01/11 10:43:46;;;;;;;43.83;28.17;;;4.00;85.20;;;;;;5088636;28;20075;-77
2021/01/11 10:46:12;;;;;;;44.77;27.23;;;4.10;85.40;;;;;;5068946;28;20511;-77
2021/01/11 10:48:45;;;;;;;37.97;25.30;;;4.20;85.40;;;;;;5080538;28;20426;-76
2021/01/11 10:51:11;;;;;;;42.20;26.05;;;4.30;85.10;;;;;;5064004;28;20024;-76
2021/01/11 10:53:44;;;;;;;43.73;27.43;;;4.30;84.10;;;;;;5080917;28;20115;-76
2021/01/11 10:56:13;;;;;;;40.30;25.58;;;4.30;84.70;;;;;;5081315;28;20032;-77
2021/01/11 10:58:38;;;;;;;38.77;25.07;;;4.40;84.60;;;;;;5066597;28;20486;-77
2021/01/11 11:01:07;;;;;;;53.23;32.07;;;4.40;84.60;;;;;;5079432;28;20028;-77
2021/01/11 11:03:33;;;;;;;40.53;27.17;;;4.60;85.20;;;;;;5088436;28;20024;-77
2021/01/11 11:05:59;;;;;;;40.63;25.90;;;4.60;84.70;;;;;;5089136;28;20052;-76
2021/01/11 11:08:25;;;;;;;38.27;26.07;;;4.60;84.30;;;;;;5093692;28;20131;-76
2021/01/11 11:10:51;;;;;;;37.60;24.43;;;4.60;84.50;;;;;;5092024;28;20523;-75
2021/01/11 11:13:16;;;;;;;36.63;23.40;;;4.70;84.20;;;;;;5076338;28;20028;-76
2021/01/11 11:15:46;;;;;;;45.57;27.17;;;4.60;84.00;;;;;;5091163;28;20047;-76
2021/01/11 11:18:12;;;;;;;39.00;24.83;;;4.60;84.20;;;;;;5065254;28;20039;-77
2021/01/11 11:20:39;;;;;;;38.67;24.77;;;4.60;83.90;;;;;;5084516;28;20039;-76
2021/01/11 11:23:06;;;;;;;36.57;23.53;;;4.70;84.30;;;;;;5088443;28;20111;-76
2021/01/11 11:25:32;;;;;;;36.27;22.93;;;4.70;84.30;;;;;;5075043;28;20042;-76
2021/01/11 11:27:58;;;;;;;35.03;23.57;;;4.80;83.70;;;;;;5057972;28;20032;-76
2021/01/11 11:30:23;;;;;;;36.93;23.47;;;4.80;83.80;;;;;;5089733;28;20028;-78
2021/01/11 11:32:51;;;;;;;32.80;23.00;;;4.90;84.00;;;;;;5084035;28;20119;-77
2021/01/11 11:35:18;;;;;;;34.77;22.63;;;5.00;83.70;;;;;;5072037;28;20036;-76
2021/01/11 11:37:45;;;;;;;33.00;21.27;;;5.00;83.80;;;;;;5088962;28;20055;-77
2021/01/11 11:40:13;;;;;;;32.50;21.00;;;4.90;83.20;;;;;;5075256;28;20061;-77
2021/01/11 11:42:39;;;;;;;32.93;21.60;;;4.90;82.80;;;;;;5091246;28;20036;-76
2021/01/11 11:45:08;;;;;;;32.13;21.30;;;4.90;83.10;;;;;;5093050;28;20040;-77
2021/01/11 11:47:34;;;;;;;30.60;20.67;;;4.90;83.20;;;;;;5089488;28;20024;-77
2021/01/11 11:50:01;;;;;;;34.23;21.77;;;4.90;83.20;;;;;;5068167;28;20102;-77
2021/01/11 11:52:27;;;;;;;30.13;19.80;;;4.90;83.80;;;;;;5090727;28;20060;-77
2021/01/11 11:54:53;;;;;;;34.13;21.17;;;5.00;83.70;;;;;;5089288;28;20489;-78
2021/01/11 11:57:19;;;;;;;29.90;20.73;;;5.00;83.90;;;;;;5087875;28;20028;-77
2021/01/11 11:59:44;;;;;;;33.17;21.33;;;5.00;83.30;;;;;;5090301;28;20187;-75
2021/01/11 12:02:13;;;;;;;30.23;20.60;;;5.10;83.50;;;;;;5091752;28;20395;-77
2021/01/11 12:04:40;;;;;;;33.57;21.70;;;5.10;83.30;;;;;;5083912;28;20036;-78
2021/01/11 12:07:06;;;;;;;29.90;19.73;;;5.10;83.70;;;;;;5084443;28;20048;-77
2021/01/11 12:09:31;;;;;;;33.77;21.13;;;5.00;83.50;;;;;;5067473;28;20024;-77
2021/01/11 12:11:57;;;;;;;30.30;20.27;;;5.00;83.60;;;;;;5085829;28;20597;-77
2021/01/11 12:14:23;;;;;;;32.00;21.50;;;5.10;83.60;;;;;;5075073;28;20035;-76
2021/01/11 12:16:50;;;;;;;34.03;21.17;;;5.10;83.90;;;;;;5089625;28;20032;-77
2021/01/11 12:19:16;;;;;;;30.93;21.00;;;5.10;83.60;;;;;;5075213;28;20055;-77
2021/01/11 12:21:42;;;;;;;30.10;20.07;;;5.20;83.60;;;;;;5092435;28;20036;-76
2021/01/11 12:24:11;;;;;;;29.73;18.93;;;5.10;83.20;;;;;;5075209;28;20016;-77
2021/01/11 12:26:42;;;;;;;32.13;20.70;;;5.00;83.40;;;;;;5075489;28;20042;-77
2021/01/11 12:29:08;;;;;;;31.00;20.33;;;5.10;84.30;;;;;;5074844;28;20055;-77
2021/01/11 12:31:34;;;;;;;33.17;22.57;;;5.20;84.00;;;;;;5091904;28;20056;-76
2021/01/11 12:34:00;;;;;;;28.73;19.20;;;5.30;84.20;;;;;;5091609;28;20085;-78
2021/01/11 12:36:27;;;;;;;28.50;19.03;;;5.30;83.40;;;;;;5092594;28;20043;-78
2021/01/11 12:38:54;;;;;;;28.40;18.90;;;5.30;82.90;;;;;;5092272;28;20028;-77
2021/01/11 12:41:21;;;;;;;27.90;18.70;;;5.20;82.60;;;;;;5092255;28;20035;-78
2021/01/11 12:43:47;;;;;;;26.77;18.23;;;5.30;82.90;;;;;;5076743;28;20024;-78
2021/01/11 12:46:20;;;;;;;28.37;18.67;;;5.30;83.20;;;;;;5073601;28;20051;-79